Terminal Aerodrome Forecast
Issued by NWS

Home | Current Version | Previous Version | Text Only | Print | Product List | Glossary Off
Versions: 1 2 3 4 5 6 7 8 9 10 11 12 13 14 15 16 17 18 19 20 21 22 23 24 25 26 27 28 29 30 31 32 33 34 35

000
FTUS43 KLOT 141100
TAFMDW
TAF
KMDW 141127Z 1412/1512 34022G30KT P6SM SCT007 OVC010
      TEMPO 1412/1414 4SM -RA OVC009
     FM141800 35019G27KT P6SM OVC015
     FM142100 36016G23KT 4SM -RASN SCT012 OVC020
     FM142300 36013G23KT 2SM -SN OVC015
     FM150400 35014KT P6SM OVC025=

USA.gov is the U.S. government's official web portal to all federal, state and local government web resources and services.